createdAt,value
2023-03-11T00:02:14.004Z,100.00
2023-03-11T00:04:40.509Z,100.00
2023-03-11T00:07:09.236Z,100.00
2023-03-11T00:09:35.834Z,100.00
2023-03-11T00:12:02.646Z,100.00
2023-03-11T00:14:29.280Z,100.00
2023-03-11T00:16:55.790Z,100.00
2023-03-11T00:19:22.290Z,100.00
2023-03-11T00:21:48.765Z,100.00
2023-03-11T00:24:15.229Z,100.00
2023-03-11T00:26:41.667Z,100.00
2023-03-11T00:29:08.229Z,100.00
2023-03-11T00:31:34.764Z,100.00
2023-03-11T00:34:01.259Z,100.00
2023-03-11T00:36:31.566Z,100.00
2023-03-11T00:38:59.340Z,100.00
2023-03-11T00:41:26.209Z,100.00
2023-03-11T00:43:52.792Z,100.00
2023-03-11T00:46:19.510Z,100.00
2023-03-11T00:48:45.907Z,100.00
2023-03-11T00:51:15.149Z,100.00
2023-03-11T00:53:42.926Z,100.00
2023-03-11T00:56:14.938Z,100.00
2023-03-11T00:58:43.968Z,100.00
2023-03-11T01:01:13.052Z,100.00
2023-03-11T01:03:40.462Z,100.00
2023-03-11T01:06:07.462Z,100.00
2023-03-11T01:08:34.374Z,100.00
2023-03-11T01:11:01.465Z,100.00
2023-03-11T01:13:29.540Z,100.00
2023-03-11T01:15:57.234Z,100.00
2023-03-11T01:18:24.453Z,100.00
2023-03-11T01:20:51.581Z,100.00
2023-03-11T01:23:19.444Z,100.00
2023-03-11T01:25:46.722Z,100.00
2023-03-11T01:28:13.426Z,100.00
2023-03-11T01:30:41.579Z,100.00
2023-03-11T01:33:13.433Z,100.00
2023-03-11T01:35:42.187Z,100.00
2023-03-11T01:38:08.686Z,100.00
2023-03-11T01:40:42.616Z,100.00
2023-03-11T01:43:45.406Z,100.00
2023-03-11T01:46:42.700Z,100.00
2023-03-11T01:49:12.074Z,100.00
2023-03-11T01:51:41.298Z,100.00
2023-03-11T01:54:13.100Z,100.00
2023-03-11T01:56:42.414Z,100.00
2023-03-11T01:59:12.765Z,100.00
2023-03-11T02:01:48.361Z,100.00
2023-03-11T02:04:16.104Z,100.00
2023-03-11T02:06:42.795Z,100.00
2023-03-11T02:09:09.458Z,100.00
2023-03-11T02:11:36.467Z,100.00
2023-03-11T02:14:06.550Z,100.00
2023-03-11T02:16:33.211Z,100.00
2023-03-11T02:19:09.161Z,100.00
2023-03-11T02:21:36.069Z,100.00
2023-03-11T02:24:28.006Z,100.00
2023-03-11T02:27:05.563Z,100.00
2023-03-11T02:29:33.658Z,100.00
2023-03-11T02:32:06.242Z,100.00
2023-03-11T02:34:35.318Z,100.00
2023-03-11T02:37:05.584Z,100.00
2023-03-11T02:39:42.135Z,100.00
2023-03-11T02:42:24.792Z,100.00
2023-03-11T02:45:12.295Z,100.00
2023-03-11T02:47:40.530Z,100.00
2023-03-11T02:50:13.756Z,100.00
2023-03-11T02:52:40.248Z,100.00
2023-03-11T02:55:08.491Z,100.00
2023-03-11T02:57:34.936Z,100.00
2023-03-11T03:00:08.609Z,100.00
2023-03-11T03:02:43.425Z,100.00
2023-03-11T03:05:11.444Z,100.00
2023-03-11T03:07:38.133Z,100.00
2023-03-11T03:10:06.337Z,100.00
2023-03-11T03:12:32.784Z,100.00
2023-03-11T03:14:59.266Z,100.00
2023-03-11T03:17:25.993Z,100.00
2023-03-11T03:19:52.524Z,100.00
2023-03-11T03:22:19.048Z,100.00
2023-03-11T03:24:46.387Z,100.00
2023-03-11T03:27:12.841Z,100.00
2023-03-11T03:29:40.469Z,100.00
2023-03-11T03:32:07.533Z,100.00
2023-03-11T03:34:34.477Z,100.00
2023-03-11T03:37:01.012Z,100.00
2023-03-11T03:39:30.379Z,100.00
2023-03-11T03:41:57.172Z,100.00
2023-03-11T03:44:26.125Z,100.00
2023-03-11T03:46:52.609Z,100.00
2023-03-11T03:49:19.318Z,100.00
2023-03-11T03:51:46.573Z,100.00
2023-03-11T03:54:21.080Z,100.00
2023-03-11T03:56:47.575Z,100.00
2023-03-11T03:59:14.106Z,100.00
2023-03-11T04:01:46.157Z,100.00
2023-03-11T04:04:12.691Z,100.00
2023-03-11T04:06:39.278Z,100.00
2023-03-11T04:09:07.134Z,100.00
2023-03-11T04:11:35.007Z,100.00
2023-03-11T04:14:03.897Z,100.00
2023-03-11T04:16:32.788Z,100.00
2023-03-11T04:19:07.053Z,100.00
2023-03-11T04:21:34.696Z,100.00
2023-03-11T04:24:01.572Z,100.00
2023-03-11T04:26:32.410Z,100.00
2023-03-11T04:28:59.083Z,100.00
2023-03-11T04:31:28.434Z,100.00
2023-03-11T04:33:56.025Z,100.00
2023-03-11T04:36:22.736Z,100.00
2023-03-11T04:38:49.545Z,100.00
2023-03-11T04:41:16.771Z,100.00
2023-03-11T04:43:44.538Z,100.00
2023-03-11T04:46:11.181Z,100.00
2023-03-11T04:48:39.693Z,100.00
2023-03-11T04:51:07.694Z,100.00
2023-03-11T04:53:34.632Z,100.00
2023-03-11T04:56:01.577Z,100.00
2023-03-11T04:58:28.862Z,100.00
2023-03-11T05:00:56.254Z,100.00
2023-03-11T05:03:23.113Z,100.00
2023-03-11T05:05:50.025Z,100.00
2023-03-11T05:08:19.138Z,100.00
2023-03-11T05:10:45.618Z,100.00
2023-03-11T05:13:12.174Z,100.00
2023-03-11T05:15:40.300Z,100.00
2023-03-11T05:18:07.508Z,100.00
2023-03-11T05:20:36.206Z,100.00
2023-03-11T05:23:03.703Z,100.00
2023-03-11T05:25:32.256Z,100.00
2023-03-11T05:27:58.944Z,100.00
2023-03-11T05:30:25.624Z,100.00
2023-03-11T05:32:52.459Z,100.00
2023-03-11T05:35:20.691Z,100.00
2023-03-11T05:37:49.649Z,100.00
2023-03-11T05:40:17.818Z,100.00
2023-03-11T05:42:44.338Z,100.00
2023-03-11T05:45:13.353Z,100.00
2023-03-11T05:47:42.334Z,100.00
2023-03-11T05:50:11.984Z,100.00
2023-03-11T05:52:39.662Z,100.00
2023-03-11T05:55:06.815Z,100.00
2023-03-11T05:57:33.615Z,100.00
2023-03-11T06:00:01.058Z,100.00
2023-03-11T06:02:27.544Z,100.00
2023-03-11T06:04:54.788Z,100.00
2023-03-11T06:07:21.346Z,100.00
2023-03-11T06:09:50.256Z,100.00
2023-03-11T06:12:18.002Z,100.00
2023-03-11T06:15:13.355Z,100.00
2023-03-11T06:17:40.810Z,100.00
2023-03-11T06:20:09.881Z,100.00
2023-03-11T06:22:39.642Z,100.00
2023-03-11T06:25:07.957Z,100.00
2023-03-11T06:27:35.018Z,100.00
2023-03-11T06:30:02.697Z,100.00
2023-03-11T06:32:35.373Z,100.00
2023-03-11T06:35:01.952Z,100.00
2023-03-11T06:37:28.634Z,100.00
2023-03-11T06:39:56.218Z,100.00
2023-03-11T06:42:24.672Z,100.00
2023-03-11T06:44:53.379Z,100.00
2023-03-11T06:47:20.285Z,100.00
2023-03-11T06:49:47.604Z,100.00
2023-03-11T06:52:14.119Z,100.00
2023-03-11T06:54:40.703Z,100.00
2023-03-11T06:57:09.032Z,100.00
2023-03-11T06:59:36.612Z,100.00
2023-03-11T07:02:05.526Z,100.00
2023-03-11T07:04:33.107Z,100.00
2023-03-11T07:06:59.659Z,100.00
2023-03-11T07:09:27.708Z,100.00
2023-03-11T07:11:54.451Z,100.00
2023-03-11T07:14:27.479Z,100.00
2023-03-11T07:16:56.133Z,100.00
2023-03-11T07:19:28.605Z,100.00
2023-03-11T07:21:55.030Z,93.48
2023-03-11T07:24:21.896Z,88.91
2023-03-11T07:26:48.445Z,84.43
2023-03-11T07:29:15.183Z,81.18
2023-03-11T07:31:41.883Z,79.01
2023-03-11T07:34:14.164Z,77.06
2023-03-11T07:36:42.275Z,75.31
2023-03-11T07:39:14.090Z,74.21
2023-03-11T07:41:40.609Z,71.21
2023-03-11T07:44:09.849Z,67.86
2023-03-11T07:46:36.466Z,63.68
2023-03-11T07:49:03.670Z,58.23
2023-03-11T07:51:33.238Z,56.57
2023-03-11T07:54:00.918Z,61.36
2023-03-11T07:56:31.081Z,70.96
2023-03-11T07:58:59.082Z,78.16
2023-03-11T08:01:30.374Z,80.47
2023-03-11T08:03:58.612Z,84.74
2023-03-11T08:06:29.075Z,85.30
2023-03-11T08:08:55.559Z,87.91
2023-03-11T08:11:22.538Z,89.07
2023-03-11T08:13:50.252Z,89.31
2023-03-11T08:16:21.228Z,90.00
2023-03-11T08:18:49.689Z,89.82
2023-03-11T08:21:18.759Z,90.40
2023-03-11T08:23:47.830Z,82.21
2023-03-11T08:26:15.988Z,74.64
2023-03-11T08:28:43.520Z,66.47
2023-03-11T08:31:24.145Z,62.17
2023-03-11T08:33:52.320Z,56.29
2023-03-11T08:36:19.850Z,50.93
2023-03-11T08:38:46.752Z,48.14
2023-03-11T08:41:14.397Z,48.42
2023-03-11T08:43:42.275Z,43.37
2023-03-11T08:46:09.163Z,45.08
2023-03-11T08:48:37.626Z,43.26
2023-03-11T08:51:10.641Z,44.40
2023-03-11T08:53:37.658Z,42.14
2023-03-11T08:56:04.473Z,41.35
2023-03-11T08:58:30.960Z,41.71
2023-03-11T09:00:57.480Z,38.85
2023-03-11T09:03:24.000Z,37.68
2023-03-11T09:05:57.238Z,38.95
2023-03-11T09:08:23.764Z,37.26
2023-03-11T09:10:50.213Z,35.57
2023-03-11T09:13:16.708Z,35.25
2023-03-11T09:15:43.166Z,39.34
2023-03-11T09:18:13.958Z,41.51
2023-03-11T09:20:41.657Z,46.32
2023-03-11T09:23:09.176Z,45.86
2023-03-11T09:25:35.676Z,48.23
2023-03-11T09:28:02.227Z,50.51
2023-03-11T09:30:28.867Z,54.52
2023-03-11T09:32:55.482Z,51.83
2023-03-11T09:35:22.287Z,51.17
2023-03-11T09:37:48.794Z,53.61
2023-03-11T09:40:17.616Z,51.59
2023-03-11T09:43:23.627Z,54.22
2023-03-11T09:46:01.082Z,48.83
2023-03-11T09:48:53.005Z,42.52
2023-03-11T09:51:32.681Z,40.57
2023-03-11T09:54:04.240Z,35.26
2023-03-11T09:56:33.909Z,39.31
2023-03-11T09:59:06.306Z,36.34
2023-03-11T10:01:37.350Z,37.92
2023-03-11T10:04:16.632Z,38.06
2023-03-11T10:06:47.657Z,40.79
2023-03-11T10:09:52.032Z,48.85
2023-03-11T10:12:27.275Z,45.77
2023-03-11T10:15:02.692Z,51.31
2023-03-11T10:18:03.196Z,52.70
2023-03-11T10:21:04.305Z,53.67
2023-03-11T10:24:04.565Z,49.93
2023-03-11T10:27:02.337Z,52.08
2023-03-11T10:30:08.980Z,50.16
2023-03-11T10:32:44.913Z,45.35
2023-03-11T10:35:21.917Z,42.01
2023-03-11T10:37:54.800Z,41.10
2023-03-11T10:40:35.261Z,44.40
2023-03-11T10:43:12.399Z,45.56
2023-03-11T10:45:43.300Z,45.56
2023-03-11T10:48:15.755Z,41.79
2023-03-11T10:50:50.873Z,40.14
2023-03-11T10:53:20.212Z,39.66
2023-03-11T10:55:58.734Z,39.62
2023-03-11T10:58:28.384Z,39.44
2023-03-11T11:01:07.720Z,37.65
2023-03-11T11:03:34.845Z,35.64
2023-03-11T11:06:07.555Z,43.00
2023-03-11T11:08:34.384Z,41.42
2023-03-11T11:11:03.364Z,39.50
2023-03-11T11:13:34.279Z,36.68
2023-03-11T11:16:03.489Z,38.59
2023-03-11T11:18:46.277Z,36.78
2023-03-11T11:21:37.200Z,37.26
2023-03-11T11:24:12.757Z,32.77
2023-03-11T11:26:39.279Z,35.48
2023-03-11T11:29:09.026Z,34.24
2023-03-11T11:31:44.590Z,34.37
2023-03-11T11:34:33.618Z,33.49
2023-03-11T11:37:04.179Z,34.43
2023-03-11T11:39:38.698Z,42.17
2023-03-11T11:42:06.219Z,42.40
2023-03-11T11:44:34.565Z,47.81
2023-03-11T11:47:13.430Z,52.59
2023-03-11T11:49:48.945Z,50.92
2023-03-11T11:52:23.662Z,46.73
2023-03-11T11:54:58.829Z,46.86
2023-03-11T11:57:25.524Z,48.23
2023-03-11T11:59:52.089Z,51.21
2023-03-11T12:02:41.454Z,55.14
2023-03-11T12:05:17.264Z,54.08
2023-03-11T12:08:00.023Z,53.74
2023-03-11T12:10:32.726Z,55.19
2023-03-11T12:13:17.880Z,51.05
2023-03-11T12:15:53.232Z,50.17
2023-03-11T12:18:35.883Z,49.20
2023-03-11T12:21:31.433Z,51.89
2023-03-11T12:24:35.782Z,55.51
2023-03-11T12:27:10.668Z,58.51
2023-03-11T12:29:43.073Z,53.95
2023-03-11T12:32:19.827Z,54.22
2023-03-11T12:34:48.832Z,50.70
2023-03-11T12:37:18.344Z,50.04
2023-03-11T12:39:44.770Z,52.48
2023-03-11T12:42:11.149Z,51.18
2023-03-11T12:44:39.026Z,52.82
2023-03-11T12:47:08.265Z,51.21
2023-03-11T12:49:43.922Z,53.25
2023-03-11T12:52:16.042Z,52.76
2023-03-11T12:55:01.304Z,50.45
2023-03-11T12:57:36.362Z,51.23
2023-03-11T13:00:23.003Z,51.63
2023-03-11T13:03:04.859Z,51.62
2023-03-11T13:05:58.962Z,53.75
2023-03-11T13:09:03.990Z,51.21
2023-03-11T13:11:33.405Z,53.11
2023-03-11T13:14:11.912Z,52.12
2023-03-11T13:16:40.188Z,52.75
2023-03-11T13:19:31.997Z,49.53
2023-03-11T13:22:00.073Z,48.47
2023-03-11T13:24:26.906Z,47.69
2023-03-11T13:27:07.895Z,47.86
2023-03-11T13:29:44.419Z,49.46
2023-03-11T13:32:35.097Z,49.16
2023-03-11T13:35:28.461Z,47.10
2023-03-11T13:38:03.817Z,47.87
2023-03-11T13:40:38.399Z,48.66
2023-03-11T13:43:11.563Z,48.26
2023-03-11T13:45:38.840Z,49.23
2023-03-11T13:48:16.530Z,48.36
2023-03-11T13:50:51.978Z,47.67
2023-03-11T13:53:28.801Z,50.42
2023-03-11T13:55:55.312Z,49.84
2023-03-11T13:58:24.913Z,45.47
2023-03-11T14:01:02.385Z,48.28
2023-03-11T14:03:36.433Z,49.25
2023-03-11T14:06:06.875Z,46.98
2023-03-11T14:08:38.543Z,48.83
2023-03-11T14:11:10.753Z,45.04
2023-03-11T14:13:41.765Z,45.36
2023-03-11T14:16:22.576Z,47.42
2023-03-11T14:19:01.773Z,47.39
2023-03-11T14:21:28.249Z,49.70
2023-03-11T14:23:55.874Z,49.60
2023-03-11T14:26:26.199Z,49.44
2023-03-11T14:28:55.803Z,47.72
2023-03-11T14:31:32.621Z,45.98
2023-03-11T14:34:04.799Z,45.44
2023-03-11T14:36:40.344Z,43.74
2023-03-11T14:39:22.548Z,47.10
2023-03-11T14:41:52.664Z,46.19
2023-03-11T14:44:20.087Z,45.41
2023-03-11T14:46:49.738Z,46.78
2023-03-11T14:49:21.180Z,47.03
2023-03-11T14:52:00.472Z,49.73
2023-03-11T14:54:32.043Z,49.42
2023-03-11T14:57:18.940Z,48.41
2023-03-11T14:59:49.541Z,46.90
2023-03-11T15:02:42.676Z,47.22
2023-03-11T15:05:20.987Z,49.56
2023-03-11T15:07:50.549Z,50.01
2023-03-11T15:10:16.988Z,49.23
2023-03-11T15:12:45.638Z,51.25
2023-03-11T15:15:38.559Z,48.50
2023-03-11T15:18:21.473Z,49.86
2023-03-11T15:21:21.019Z,49.14
2023-03-11T15:23:48.993Z,51.42
2023-03-11T15:26:19.586Z,47.63
2023-03-11T15:28:46.014Z,48.82
2023-03-11T15:31:21.301Z,47.71
2023-03-11T15:33:51.798Z,47.87
2023-03-11T15:36:32.724Z,46.67
2023-03-11T15:39:13.739Z,50.11
2023-03-11T15:42:03.640Z,50.95
2023-03-11T15:44:43.109Z,49.16
2023-03-11T15:47:15.397Z,47.90
2023-03-11T15:49:45.341Z,49.94
2023-03-11T15:52:12.383Z,48.06
2023-03-11T15:54:39.699Z,49.89
2023-03-11T15:57:10.597Z,47.74
2023-03-11T15:59:38.569Z,46.69
2023-03-11T16:02:21.067Z,47.57
2023-03-11T16:04:47.709Z,46.52
2023-03-11T16:07:14.373Z,46.69
2023-03-11T16:09:40.846Z,45.48
2023-03-11T16:12:22.168Z,44.80
2023-03-11T16:14:51.344Z,42.48
2023-03-11T16:17:18.995Z,44.33
2023-03-11T16:19:47.986Z,44.42
2023-03-11T16:22:31.073Z,44.62
2023-03-11T16:24:59.563Z,45.50
2023-03-11T16:27:26.023Z,46.33
2023-03-11T16:29:52.446Z,48.11
2023-03-11T16:32:18.908Z,49.26
2023-03-11T16:34:45.626Z,47.18
2023-03-11T16:37:16.171Z,46.69
2023-03-11T16:39:42.698Z,47.73
2023-03-11T16:42:09.802Z,49.81
2023-03-11T16:44:36.243Z,49.18
2023-03-11T16:47:02.640Z,49.24
2023-03-11T16:49:29.263Z,52.04
2023-03-11T16:51:55.801Z,50.95
2023-03-11T16:54:22.434Z,51.92
2023-03-11T16:56:48.879Z,53.06
2023-03-11T16:59:15.376Z,54.05
2023-03-11T17:01:42.200Z,53.04
2023-03-11T17:04:08.703Z,51.75
2023-03-11T17:06:35.222Z,54.58
2023-03-11T17:09:01.803Z,56.08
2023-03-11T17:11:30.306Z,58.40
2023-03-11T17:14:10.105Z,59.75
2023-03-11T17:16:42.452Z,60.13
2023-03-11T17:19:08.965Z,59.22
2023-03-11T17:21:35.439Z,60.95
2023-03-11T17:24:01.934Z,62.07
2023-03-11T17:26:30.925Z,61.87
2023-03-11T17:28:57.530Z,63.34
2023-03-11T17:31:24.198Z,63.54
2023-03-11T17:33:50.750Z,64.50
2023-03-11T17:36:18.056Z,65.86
2023-03-11T17:38:46.142Z,66.82
2023-03-11T17:41:15.505Z,67.39
2023-03-11T17:43:43.087Z,68.86
2023-03-11T17:46:14.203Z,69.96
2023-03-11T17:48:45.854Z,70.70
2023-03-11T17:51:15.687Z,71.59
2023-03-11T17:53:45.807Z,72.40
2023-03-11T17:56:14.518Z,72.87
2023-03-11T17:58:40.987Z,73.61
2023-03-11T18:01:16.359Z,73.80
2023-03-11T18:03:43.198Z,74.80
2023-03-11T18:06:11.102Z,75.42
2023-03-11T18:08:37.651Z,75.25
2023-03-11T18:11:06.803Z,75.94
2023-03-11T18:13:34.438Z,75.99
2023-03-11T18:16:05.194Z,76.10
2023-03-11T18:18:32.904Z,76.25
2023-03-11T18:21:11.646Z,76.92
2023-03-11T18:23:39.221Z,77.35
2023-03-11T18:26:07.715Z,77.73
2023-03-11T18:28:35.297Z,77.80
2023-03-11T18:31:29.800Z,78.06
2023-03-11T18:34:02.697Z,78.68
2023-03-11T18:36:32.328Z,79.16
2023-03-11T18:39:00.321Z,79.20
2023-03-11T18:41:30.059Z,79.16
2023-03-11T18:43:57.782Z,79.09
2023-03-11T18:46:26.264Z,79.67
2023-03-11T18:48:53.815Z,79.91
2023-03-11T18:51:20.466Z,80.55
2023-03-11T18:53:46.931Z,80.51
2023-03-11T18:56:15.960Z,81.07
2023-03-11T18:58:43.110Z,80.67
2023-03-11T19:01:15.686Z,81.16
2023-03-11T19:03:43.287Z,81.25
2023-03-11T19:06:12.423Z,81.50
2023-03-11T19:08:39.611Z,81.33
2023-03-11T19:11:14.623Z,81.91
2023-03-11T19:13:47.107Z,81.45
2023-03-11T19:16:16.187Z,81.83
2023-03-11T19:18:42.772Z,81.50
2023-03-11T19:21:12.301Z,82.51
2023-03-11T19:23:38.899Z,82.39
2023-03-11T19:26:06.082Z,82.22
2023-03-11T19:28:32.695Z,83.05
2023-03-11T19:30:59.699Z,83.30
2023-03-11T19:33:26.770Z,82.65
2023-03-11T19:35:58.430Z,83.23
2023-03-11T19:38:26.163Z,82.74
2023-03-11T19:41:14.288Z,83.89
2023-03-11T19:43:41.801Z,83.68
2023-03-11T19:46:12.180Z,83.95
2023-03-11T19:48:38.840Z,84.74
2023-03-11T19:51:05.927Z,83.96
2023-03-11T19:53:34.077Z,83.71
2023-03-11T19:56:01.485Z,84.64
2023-03-11T19:58:30.459Z,84.45
2023-03-11T20:00:58.253Z,84.75
2023-03-11T20:03:25.436Z,84.88
2023-03-11T20:05:54.681Z,85.53
2023-03-11T20:08:21.637Z,85.37
2023-03-11T20:10:50.252Z,85.27
2023-03-11T20:13:20.123Z,85.69
2023-03-11T20:15:47.058Z,85.88
2023-03-11T20:18:13.723Z,85.42
2023-03-11T20:20:43.044Z,85.75
2023-03-11T20:23:09.826Z,85.92
2023-03-11T20:25:39.053Z,85.82
2023-03-11T20:28:05.865Z,86.23
2023-03-11T20:30:32.435Z,86.62
2023-03-11T20:32:58.955Z,86.41
2023-03-11T20:35:25.470Z,86.83
2023-03-11T20:37:52.017Z,86.08
2023-03-11T20:40:19.026Z,86.93
2023-03-11T20:42:47.222Z,86.87
2023-03-11T20:45:17.451Z,87.25
2023-03-11T20:47:44.420Z,87.43
2023-03-11T20:50:12.553Z,86.60
2023-03-11T20:52:39.316Z,87.79
2023-03-11T20:55:08.292Z,87.39
2023-03-11T20:57:35.117Z,87.14
2023-03-11T21:00:01.656Z,87.28
2023-03-11T21:02:30.804Z,87.67
2023-03-11T21:04:57.491Z,87.99
2023-03-11T21:07:24.017Z,88.16
2023-03-11T21:09:54.383Z,88.26
2023-03-11T21:12:21.852Z,88.88
2023-03-11T21:14:48.499Z,88.80
2023-03-11T21:17:15.550Z,89.23
2023-03-11T21:19:42.228Z,88.26
2023-03-11T21:22:08.965Z,89.20
2023-03-11T21:24:35.408Z,88.80
2023-03-11T21:27:02.096Z,88.75
2023-03-11T21:29:30.624Z,88.56
2023-03-11T21:31:58.506Z,89.30
2023-03-11T21:34:25.092Z,88.71
2023-03-11T21:36:51.583Z,89.55
2023-03-11T21:39:18.341Z,89.15
2023-03-11T21:41:44.878Z,89.61
2023-03-11T21:44:11.424Z,89.31
2023-03-11T21:46:38.210Z,89.74
2023-03-11T21:49:04.867Z,89.83
2023-03-11T21:51:31.422Z,89.53
2023-03-11T21:53:59.135Z,89.73
2023-03-11T21:56:25.774Z,89.17
2023-03-11T21:58:53.675Z,89.95
2023-03-11T22:01:20.284Z,89.74
2023-03-11T22:03:48.028Z,89.94
2023-03-11T22:06:15.573Z,89.16
2023-03-11T22:08:44.965Z,89.91
2023-03-11T22:11:17.359Z,89.83
2023-03-11T22:13:45.575Z,89.61
2023-03-11T22:16:12.513Z,89.72
2023-03-11T22:18:39.720Z,88.99
2023-03-11T22:21:07.221Z,89.40
2023-03-11T22:23:35.235Z,89.60
2023-03-11T22:26:02.676Z,90.24
2023-03-11T22:28:29.569Z,90.11
2023-03-11T22:30:56.073Z,89.29
2023-03-11T22:33:22.634Z,90.23
2023-03-11T22:35:57.328Z,90.05
2023-03-11T22:38:24.113Z,90.25
2023-03-11T22:40:51.380Z,89.87
2023-03-11T22:43:18.011Z,90.70
2023-03-11T22:45:45.528Z,90.54
2023-03-11T22:48:12.452Z,90.21
2023-03-11T22:50:45.168Z,90.18
2023-03-11T22:53:12.751Z,90.33
2023-03-11T22:55:44.599Z,91.17
2023-03-11T22:58:11.498Z,90.64
2023-03-11T23:00:38.179Z,91.36
2023-03-11T23:03:04.752Z,91.22
2023-03-11T23:05:31.272Z,90.53
2023-03-11T23:07:57.742Z,90.80
2023-03-11T23:10:24.224Z,91.15
2023-03-11T23:12:50.673Z,91.36
2023-03-11T23:15:19.244Z,91.47
2023-03-11T23:17:46.145Z,91.02
2023-03-11T23:20:15.623Z,91.03
2023-03-11T23:22:42.523Z,91.45
2023-03-11T23:25:13.260Z,90.97
2023-03-11T23:27:41.736Z,91.39
2023-03-11T23:30:10.599Z,91.19
2023-03-11T23:32:37.097Z,91.32
2023-03-11T23:35:04.228Z,91.61
2023-03-11T23:37:30.745Z,91.65
2023-03-11T23:39:57.293Z,91.06
2023-03-11T23:42:26.136Z,90.95
2023-03-11T23:44:53.407Z,91.18
2023-03-11T23:47:19.861Z,91.43
2023-03-11T23:49:46.298Z,91.77
2023-03-11T23:52:12.689Z,91.40
2023-03-11T23:54:39.094Z,91.68
2023-03-11T23:57:05.561Z,91.16
2023-03-11T23:59:32.084Z,91.63
